sensor_id;sensor_type;location;lat;lon;timestamp;temperature;humidity
67799;SHT30;54596;43.216;27.904;2023-02-28T00:02:20;8.80;79.10
67799;SHT30;54596;43.216;27.904;2023-02-28T00:04:46;8.80;79.09
67799;SHT30;54596;43.216;27.904;2023-02-28T00:07:26;8.84;79.01
67799;SHT30;54596;43.216;27.904;2023-02-28T00:09:53;8.84;78.84
67799;SHT30;54596;43.216;27.904;2023-02-28T00:12:18;8.93;78.66
67799;SHT30;54596;43.216;27.904;2023-02-28T00:14:44;9.00;78.69
67799;SHT30;54596;43.216;27.904;2023-02-28T00:17:09;9.01;78.58
67799;SHT30;54596;43.216;27.904;2023-02-28T00:19:34;8.99;78.89
67799;SHT30;54596;43.216;27.904;2023-02-28T00:22:00;8.90;78.68
67799;SHT30;54596;43.216;27.904;2023-02-28T00:24:25;8.52;79.61
67799;SHT30;54596;43.216;27.904;2023-02-28T00:26:51;8.54;79.87
67799;SHT30;54596;43.216;27.904;2023-02-28T00:29:16;8.54;79.79
67799;SHT30;54596;43.216;27.904;2023-02-28T00:31:42;8.36;80.41
67799;SHT30;54596;43.216;27.904;2023-02-28T00:34:07;8.28;80.72
67799;SHT30;54596;43.216;27.904;2023-02-28T00:36:33;8.24;81.04
67799;SHT30;54596;43.216;27.904;2023-02-28T00:38:58;8.19;81.05
67799;SHT30;54596;43.216;27.904;2023-02-28T00:41:24;8.16;81.17
67799;SHT30;54596;43.216;27.904;2023-02-28T00:43:49;8.16;81.22
67799;SHT30;54596;43.216;27.904;2023-02-28T00:46:15;8.24;81.35
67799;SHT30;54596;43.216;27.904;2023-02-28T00:48:40;8.34;81.23
67799;SHT30;54596;43.216;27.904;2023-02-28T00:51:06;8.36;81.10
67799;SHT30;54596;43.216;27.904;2023-02-28T00:53:32;8.42;81.17
67799;SHT30;54596;43.216;27.904;2023-02-28T00:56:00;8.38;80.84
67799;SHT30;54596;43.216;27.904;2023-02-28T00:58:26;8.40;80.99
67799;SHT30;54596;43.216;27.904;2023-02-28T01:00:52;8.37;80.83
67799;SHT30;54596;43.216;27.904;2023-02-28T01:03:19;8.28;80.90
67799;SHT30;54596;43.216;27.904;2023-02-28T01:05:46;8.21;81.26
67799;SHT30;54596;43.216;27.904;2023-02-28T01:08:12;8.16;81.32
67799;SHT30;54596;43.216;27.904;2023-02-28T01:10:37;8.16;81.55
67799;SHT30;54596;43.216;27.904;2023-02-28T01:13:03;8.21;81.48
67799;SHT30;54596;43.216;27.904;2023-02-28T01:15:29;8.27;81.21
67799;SHT30;54596;43.216;27.904;2023-02-28T01:17:57;8.31;81.25
67799;SHT30;54596;43.216;27.904;2023-02-28T01:20:22;8.37;80.99
67799;SHT30;54596;43.216;27.904;2023-02-28T01:22:48;8.41;80.65
67799;SHT30;54596;43.216;27.904;2023-02-28T01:25:13;8.41;80.49
67799;SHT30;54596;43.216;27.904;2023-02-28T01:27:39;8.37;80.36
67799;SHT30;54596;43.216;27.904;2023-02-28T01:30:06;8.11;81.06
67799;SHT30;54596;43.216;27.904;2023-02-28T01:32:32;8.09;81.13
67799;SHT30;54596;43.216;27.904;2023-02-28T01:34:57;7.82;81.89
67799;SHT30;54596;43.216;27.904;2023-02-28T01:37:23;7.64;82.69
67799;SHT30;54596;43.216;27.904;2023-02-28T01:39:49;7.75;82.32
67799;SHT30;54596;43.216;27.904;2023-02-28T01:42:15;7.83;82.10
67799;SHT30;54596;43.216;27.904;2023-02-28T01:47:40;7.90;81.85
67799;SHT30;54596;43.216;27.904;2023-02-28T01:50:10;7.94;81.63
67799;SHT30;54596;43.216;27.904;2023-02-28T01:52:36;8.00;81.53
67799;SHT30;54596;43.216;27.904;2023-02-28T01:55:04;7.99;81.31
67799;SHT30;54596;43.216;27.904;2023-02-28T01:57:41;7.99;81.32
67799;SHT30;54596;43.216;27.904;2023-02-28T02:00:13;7.86;81.36
67799;SHT30;54596;43.216;27.904;2023-02-28T02:02:45;7.61;82.29
67799;SHT30;54596;43.216;27.904;2023-02-28T02:05:19;7.57;82.47
67799;SHT30;54596;43.216;27.904;2023-02-28T02:07:47;7.68;82.37
67799;SHT30;54596;43.216;27.904;2023-02-28T02:10:52;7.64;82.27
67799;SHT30;54596;43.216;27.904;2023-02-28T02:33:24;7.24;82.80
67799;SHT30;54596;43.216;27.904;2023-02-28T02:36:03;7.24;83.06
67799;SHT30;54596;43.216;27.904;2023-02-28T02:38:49;7.19;83.26
67799;SHT30;54596;43.216;27.904;2023-02-28T02:41:50;7.22;83.52
67799;SHT30;54596;43.216;27.904;2023-02-28T02:44:44;7.27;83.41
67799;SHT30;54596;43.216;27.904;2023-02-28T02:47:17;7.37;82.95
67799;SHT30;54596;43.216;27.904;2023-02-28T02:49:48;7.44;82.78
67799;SHT30;54596;43.216;27.904;2023-02-28T02:52:17;7.43;82.53
67799;SHT30;54596;43.216;27.904;2023-02-28T02:54:45;7.35;82.71
67799;SHT30;54596;43.216;27.904;2023-02-28T02:57:54;7.44;82.30
67799;SHT30;54596;43.216;27.904;2023-02-28T03:00:32;7.38;82.20
67799;SHT30;54596;43.216;27.904;2023-02-28T03:02:59;7.37;82.42
67799;SHT30;54596;43.216;27.904;2023-02-28T03:05:30;7.35;82.54
67799;SHT30;54596;43.216;27.904;2023-02-28T03:07:59;7.46;82.29
67799;SHT30;54596;43.216;27.904;2023-02-28T03:10:37;7.50;82.05
67799;SHT30;54596;43.216;27.904;2023-02-28T03:22:24;7.33;81.64
67799;SHT30;54596;43.216;27.904;2023-02-28T03:27:39;7.27;81.94
67799;SHT30;54596;43.216;27.904;2023-02-28T03:30:11;7.12;82.49
67799;SHT30;54596;43.216;27.904;2023-02-28T03:32:59;7.00;83.04
67799;SHT30;54596;43.216;27.904;2023-02-28T03:35:33;7.09;82.95
67799;SHT30;54596;43.216;27.904;2023-02-28T03:38:09;7.05;83.06
67799;SHT30;54596;43.216;27.904;2023-02-28T03:40:42;6.99;83.41
67799;SHT30;54596;43.216;27.904;2023-02-28T03:43:13;6.91;83.63
67799;SHT30;54596;43.216;27.904;2023-02-28T03:45:41;6.88;83.88
67799;SHT30;54596;43.216;27.904;2023-02-28T03:48:15;6.85;84.18
67799;SHT30;54596;43.216;27.904;2023-02-28T03:50:46;6.82;84.11
67799;SHT30;54596;43.216;27.904;2023-02-28T03:55:47;6.82;83.92
67799;SHT30;54596;43.216;27.904;2023-02-28T04:00:48;6.93;83.71
67799;SHT30;54596;43.216;27.904;2023-02-28T04:03:15;7.00;83.34
67799;SHT30;54596;43.216;27.904;2023-02-28T04:05:51;7.02;83.33
67799;SHT30;54596;43.216;27.904;2023-02-28T04:08:17;7.02;83.16
67799;SHT30;54596;43.216;27.904;2023-02-28T04:10:45;7.13;82.77
67799;SHT30;54596;43.216;27.904;2023-02-28T04:13:13;7.07;82.79
67799;SHT30;54596;43.216;27.904;2023-02-28T04:15:38;6.99;82.74
67799;SHT30;54596;43.216;27.904;2023-02-28T04:18:04;6.99;82.95
67799;SHT30;54596;43.216;27.904;2023-02-28T04:20:29;7.09;82.62
67799;SHT30;54596;43.216;27.904;2023-02-28T04:22:55;7.14;82.48
67799;SHT30;54596;43.216;27.904;2023-02-28T04:25:20;7.12;82.55
67799;SHT30;54596;43.216;27.904;2023-02-28T04:27:45;7.05;82.61
67799;SHT30;54596;43.216;27.904;2023-02-28T04:30:11;7.02;82.97
67799;SHT30;54596;43.216;27.904;2023-02-28T04:32:37;7.03;82.90
67799;SHT30;54596;43.216;27.904;2023-02-28T04:35:03;7.05;82.87
67799;SHT30;54596;43.216;27.904;2023-02-28T04:37:28;7.05;82.64
67799;SHT30;54596;43.216;27.904;2023-02-28T04:39:54;7.05;82.88
67799;SHT30;54596;43.216;27.904;2023-02-28T04:42:20;7.06;82.72
67799;SHT30;54596;43.216;27.904;2023-02-28T04:44:45;7.03;82.73
67799;SHT30;54596;43.216;27.904;2023-02-28T04:47:12;7.03;82.98
67799;SHT30;54596;43.216;27.904;2023-02-28T04:49:37;7.05;83.05
67799;SHT30;54596;43.216;27.904;2023-02-28T04:52:03;7.03;83.35
67799;SHT30;54596;43.216;27.904;2023-02-28T04:54:29;7.07;83.41
67799;SHT30;54596;43.216;27.904;2023-02-28T04:56:55;7.07;83.32
67799;SHT30;54596;43.216;27.904;2023-02-28T04:59:20;7.05;83.93
67799;SHT30;54596;43.216;27.904;2023-02-28T05:01:47;7.00;83.74
67799;SHT30;54596;43.216;27.904;2023-02-28T05:04:13;7.05;83.49
67799;SHT30;54596;43.216;27.904;2023-02-28T05:06:39;7.06;83.34
67799;SHT30;54596;43.216;27.904;2023-02-28T05:09:04;7.00;83.56
67799;SHT30;54596;43.216;27.904;2023-02-28T05:11:32;7.06;84.11
67799;SHT30;54596;43.216;27.904;2023-02-28T05:14:06;6.92;85.00
67799;SHT30;54596;43.216;27.904;2023-02-28T05:16:32;6.95;84.19
67799;SHT30;54596;43.216;27.904;2023-02-28T05:18:58;6.97;84.03
67799;SHT30;54596;43.216;27.904;2023-02-28T05:23:52;6.95;84.24
67799;SHT30;54596;43.216;27.904;2023-02-28T05:26:18;6.91;84.57
67799;SHT30;54596;43.216;27.904;2023-02-28T05:28:44;6.91;84.83
67799;SHT30;54596;43.216;27.904;2023-02-28T05:31:13;6.96;84.67
67799;SHT30;54596;43.216;27.904;2023-02-28T05:33:38;7.00;84.63
67799;SHT30;54596;43.216;27.904;2023-02-28T05:36:05;7.05;84.65
67799;SHT30;54596;43.216;27.904;2023-02-28T05:38:30;7.10;84.19
67799;SHT30;54596;43.216;27.904;2023-02-28T05:40:57;7.17;84.44
67799;SHT30;54596;43.216;27.904;2023-02-28T05:43:23;7.26;84.17
67799;SHT30;54596;43.216;27.904;2023-02-28T05:45:49;7.33;83.85
67799;SHT30;54596;43.216;27.904;2023-02-28T05:48:14;7.41;83.81
67799;SHT30;54596;43.216;27.904;2023-02-28T05:50:39;7.50;83.48
67799;SHT30;54596;43.216;27.904;2023-02-28T05:53:06;7.34;83.73
67799;SHT30;54596;43.216;27.904;2023-02-28T05:55:31;7.07;84.60
67799;SHT30;54596;43.216;27.904;2023-02-28T05:57:57;6.97;85.53
67799;SHT30;54596;43.216;27.904;2023-02-28T06:00:22;7.07;86.86
67799;SHT30;54596;43.216;27.904;2023-02-28T06:02:48;7.09;87.16
67799;SHT30;54596;43.216;27.904;2023-02-28T06:05:16;6.93;87.32
67799;SHT30;54596;43.216;27.904;2023-02-28T06:07:43;6.96;87.76
67799;SHT30;54596;43.216;27.904;2023-02-28T06:10:10;7.02;87.81
67799;SHT30;54596;43.216;27.904;2023-02-28T06:12:36;6.97;87.45
67799;SHT30;54596;43.216;27.904;2023-02-28T06:15:02;6.95;87.98
67799;SHT30;54596;43.216;27.904;2023-02-28T06:17:28;6.89;88.55
67799;SHT30;54596;43.216;27.904;2023-02-28T06:19:53;6.85;88.43
67799;SHT30;54596;43.216;27.904;2023-02-28T06:22:19;6.92;88.77
67799;SHT30;54596;43.216;27.904;2023-02-28T06:24:44;7.03;88.31
67799;SHT30;54596;43.216;27.904;2023-02-28T06:27:09;7.12;88.24
67799;SHT30;54596;43.216;27.904;2023-02-28T06:29:35;7.16;87.63
67799;SHT30;54596;43.216;27.904;2023-02-28T06:32:01;7.17;87.76
67799;SHT30;54596;43.216;27.904;2023-02-28T06:34:27;7.22;87.33
67799;SHT30;54596;43.216;27.904;2023-02-28T06:36:52;7.28;87.00
67799;SHT30;54596;43.216;27.904;2023-02-28T06:39:18;7.23;87.41
67799;SHT30;54596;43.216;27.904;2023-02-28T06:41:44;7.14;87.30
67799;SHT30;54596;43.216;27.904;2023-02-28T06:44:16;7.12;87.31
67799;SHT30;54596;43.216;27.904;2023-02-28T06:46:43;7.05;87.15
67799;SHT30;54596;43.216;27.904;2023-02-28T06:49:09;7.02;87.60
67799;SHT30;54596;43.216;27.904;2023-02-28T06:51:37;6.91;87.34
67799;SHT30;54596;43.216;27.904;2023-02-28T06:54:03;6.91;87.83
67799;SHT30;54596;43.216;27.904;2023-02-28T06:56:29;6.97;87.56
67799;SHT30;54596;43.216;27.904;2023-02-28T06:58:54;6.93;87.42
67799;SHT30;54596;43.216;27.904;2023-02-28T07:01:24;6.95;87.61
67799;SHT30;54596;43.216;27.904;2023-02-28T07:03:50;6.93;87.38
67799;SHT30;54596;43.216;27.904;2023-02-28T07:06:23;6.95;87.63
67799;SHT30;54596;43.216;27.904;2023-02-28T07:08:50;6.99;87.01
67799;SHT30;54596;43.216;27.904;2023-02-28T07:11:16;7.02;87.20
67799;SHT30;54596;43.216;27.904;2023-02-28T07:13:42;7.06;86.73
67799;SHT30;54596;43.216;27.904;2023-02-28T07:16:11;7.13;86.76
67799;SHT30;54596;43.216;27.904;2023-02-28T07:18:37;7.12;86.94
67799;SHT30;54596;43.216;27.904;2023-02-28T07:21:05;7.10;85.90
67799;SHT30;54596;43.216;27.904;2023-02-28T07:23:30;7.13;86.10
67799;SHT30;54596;43.216;27.904;2023-02-28T07:25:56;7.02;86.86
67799;SHT30;54596;43.216;27.904;2023-02-28T07:28:21;7.10;86.25
67799;SHT30;54596;43.216;27.904;2023-02-28T07:30:47;6.96;86.42
67799;SHT30;54596;43.216;27.904;2023-02-28T07:33:13;6.86;86.17
67799;SHT30;54596;43.216;27.904;2023-02-28T07:35:39;6.86;87.40
67799;SHT30;54596;43.216;27.904;2023-02-28T07:38:04;6.95;87.23
67799;SHT30;54596;43.216;27.904;2023-02-28T07:40:30;6.96;86.78
67799;SHT30;54596;43.216;27.904;2023-02-28T07:42:55;6.95;86.73
67799;SHT30;54596;43.216;27.904;2023-02-28T07:45:21;6.78;86.98
67799;SHT30;54596;43.216;27.904;2023-02-28T07:47:46;6.74;87.35
67799;SHT30;54596;43.216;27.904;2023-02-28T07:50:15;6.81;88.04
67799;SHT30;54596;43.216;27.904;2023-02-28T07:52:41;6.77;87.80
67799;SHT30;54596;43.216;27.904;2023-02-28T07:55:09;6.82;87.89
67799;SHT30;54596;43.216;27.904;2023-02-28T07:57:36;6.77;86.82
67799;SHT30;54596;43.216;27.904;2023-02-28T08:00:04;6.67;87.03
67799;SHT30;54596;43.216;27.904;2023-02-28T08:02:30;6.69;87.22
67799;SHT30;54596;43.216;27.904;2023-02-28T08:04:55;6.71;87.16
67799;SHT30;54596;43.216;27.904;2023-02-28T08:07:22;6.78;87.17
67799;SHT30;54596;43.216;27.904;2023-02-28T08:09:48;6.84;86.75
67799;SHT30;54596;43.216;27.904;2023-02-28T08:12:13;6.88;86.69
67799;SHT30;54596;43.216;27.904;2023-02-28T08:14:39;6.91;86.72
67799;SHT30;54596;43.216;27.904;2023-02-28T08:17:06;6.85;86.49
67799;SHT30;54596;43.216;27.904;2023-02-28T08:19:32;6.82;86.43
67799;SHT30;54596;43.216;27.904;2023-02-28T08:21:57;6.77;86.59
67799;SHT30;54596;43.216;27.904;2023-02-28T08:24:23;6.81;86.91
67799;SHT30;54596;43.216;27.904;2023-02-28T08:26:49;6.82;86.78
67799;SHT30;54596;43.216;27.904;2023-02-28T08:29:16;6.78;86.63
67799;SHT30;54596;43.216;27.904;2023-02-28T08:31:41;6.74;86.81
67799;SHT30;54596;43.216;27.904;2023-02-28T08:34:09;6.74;86.79
67799;SHT30;54596;43.216;27.904;2023-02-28T08:36:34;6.72;86.47
67799;SHT30;54596;43.216;27.904;2023-02-28T08:39:00;6.82;86.54
67799;SHT30;54596;43.216;27.904;2023-02-28T08:41:26;6.81;86.46
67799;SHT30;54596;43.216;27.904;2023-02-28T08:43:52;6.88;86.49
67799;SHT30;54596;43.216;27.904;2023-02-28T08:46:18;6.92;85.93
67799;SHT30;54596;43.216;27.904;2023-02-28T08:48:44;6.96;86.27
67799;SHT30;54596;43.216;27.904;2023-02-28T08:51:14;7.02;86.54
67799;SHT30;54596;43.216;27.904;2023-02-28T08:53:41;7.02;86.53
67799;SHT30;54596;43.216;27.904;2023-02-28T08:56:12;7.05;85.86
67799;SHT30;54596;43.216;27.904;2023-02-28T08:58:38;7.00;85.12
67799;SHT30;54596;43.216;27.904;2023-02-28T09:01:14;6.95;85.62
67799;SHT30;54596;43.216;27.904;2023-02-28T09:03:41;7.00;85.76
67799;SHT30;54596;43.216;27.904;2023-02-28T09:06:09;6.99;85.42
67799;SHT30;54596;43.216;27.904;2023-02-28T09:08:35;7.03;86.06
67799;SHT30;54596;43.216;27.904;2023-02-28T09:11:01;7.09;86.00
67799;SHT30;54596;43.216;27.904;2023-02-28T09:13:28;7.09;85.56
67799;SHT30;54596;43.216;27.904;2023-02-28T09:15:57;7.10;85.08
67799;SHT30;54596;43.216;27.904;2023-02-28T09:18:23;7.09;85.11
67799;SHT30;54596;43.216;27.904;2023-02-28T09:20:48;7.17;85.32
67799;SHT30;54596;43.216;27.904;2023-02-28T09:23:14;7.30;85.04
67799;SHT30;54596;43.216;27.904;2023-02-28T09:25:51;7.38;85.05
67799;SHT30;54596;43.216;27.904;2023-02-28T09:28:17;7.48;85.22
67799;SHT30;54596;43.216;27.904;2023-02-28T09:30:49;7.50;84.97
67799;SHT30;54596;43.216;27.904;2023-02-28T09:33:15;7.51;84.38
67799;SHT30;54596;43.216;27.904;2023-02-28T09:35:42;7.51;84.38
67799;SHT30;54596;43.216;27.904;2023-02-28T09:38:09;7.54;84.50
67799;SHT30;54596;43.216;27.904;2023-02-28T09:40:47;7.52;84.21
67799;SHT30;54596;43.216;27.904;2023-02-28T09:43:15;7.43;83.93
67799;SHT30;54596;43.216;27.904;2023-02-28T09:45:54;7.44;84.15
67799;SHT30;54596;43.216;27.904;2023-02-28T09:48:32;7.47;84.00
67799;SHT30;54596;43.216;27.904;2023-02-28T09:51:09;7.52;84.50
67799;SHT30;54596;43.216;27.904;2023-02-28T09:53:38;7.47;84.41
67799;SHT30;54596;43.216;27.904;2023-02-28T09:56:11;7.40;84.08
67799;SHT30;54596;43.216;27.904;2023-02-28T09:59:01;7.44;84.06
67799;SHT30;54596;43.216;27.904;2023-02-28T10:02:04;7.43;84.13
67799;SHT30;54596;43.216;27.904;2023-02-28T10:08:18;7.59;83.81
67799;SHT30;54596;43.216;27.904;2023-02-28T10:10:51;7.64;83.56
67799;SHT30;54596;43.216;27.904;2023-02-28T10:13:56;7.50;83.11
67799;SHT30;54596;43.216;27.904;2023-02-28T10:16:48;7.41;83.81
67799;SHT30;54596;43.216;27.904;2023-02-28T10:19:33;7.37;83.39
67799;SHT30;54596;43.216;27.904;2023-02-28T10:24:42;7.40;83.52
67799;SHT30;54596;43.216;27.904;2023-02-28T10:27:21;7.41;83.49
67799;SHT30;54596;43.216;27.904;2023-02-28T10:29:51;7.38;83.70
67799;SHT30;54596;43.216;27.904;2023-02-28T10:32:20;7.35;83.74
67799;SHT30;54596;43.216;27.904;2023-02-28T10:35:10;7.47;84.20
67799;SHT30;54596;43.216;27.904;2023-02-28T10:37:41;7.58;83.52
67799;SHT30;54596;43.216;27.904;2023-02-28T10:40:28;7.58;83.01
67799;SHT30;54596;43.216;27.904;2023-02-28T10:45:28;7.59;82.84
67799;SHT30;54596;43.216;27.904;2023-02-28T10:48:26;7.52;82.80
67799;SHT30;54596;43.216;27.904;2023-02-28T10:50:53;7.44;83.42
67799;SHT30;54596;43.216;27.904;2023-02-28T11:01:38;7.64;85.21
67799;SHT30;54596;43.216;27.904;2023-02-28T11:04:17;7.79;84.12
67799;SHT30;54596;43.216;27.904;2023-02-28T11:06:44;7.76;83.01
67799;SHT30;54596;43.216;27.904;2023-02-28T11:11:59;7.68;83.35
67799;SHT30;54596;43.216;27.904;2023-02-28T11:14:28;7.81;83.15
67799;SHT30;54596;43.216;27.904;2023-02-28T11:16:59;7.83;82.68
67799;SHT30;54596;43.216;27.904;2023-02-28T11:19:38;7.93;82.36
67799;SHT30;54596;43.216;27.904;2023-02-28T11:22:05;7.81;82.22
67799;SHT30;54596;43.216;27.904;2023-02-28T11:24:35;7.79;82.68
67799;SHT30;54596;43.216;27.904;2023-02-28T11:27:03;7.75;82.84
67799;SHT30;54596;43.216;27.904;2023-02-28T11:29:31;7.71;82.85
67799;SHT30;54596;43.216;27.904;2023-02-28T11:32:19;7.64;83.21
67799;SHT30;54596;43.216;27.904;2023-02-28T11:34:46;7.59;83.32
67799;SHT30;54596;43.216;27.904;2023-02-28T11:37:15;7.61;83.42
67799;SHT30;54596;43.216;27.904;2023-02-28T11:39:42;7.68;83.26
67799;SHT30;54596;43.216;27.904;2023-02-28T11:56:23;7.76;83.58
67799;SHT30;54596;43.216;27.904;2023-02-28T11:59:13;7.74;82.36
67799;SHT30;54596;43.216;27.904;2023-02-28T12:10:49;7.81;82.51
67799;SHT30;54596;43.216;27.904;2023-02-28T12:13:26;7.83;82.19
67799;SHT30;54596;43.216;27.904;2023-02-28T12:19:13;7.68;82.45
67799;SHT30;54596;43.216;27.904;2023-02-28T12:22:05;7.59;82.86
67799;SHT30;54596;43.216;27.904;2023-02-28T12:27:37;7.64;82.72
67799;SHT30;54596;43.216;27.904;2023-02-28T12:30:25;7.47;82.94
67799;SHT30;54596;43.216;27.904;2023-02-28T12:33:04;7.52;82.81
67799;SHT30;54596;43.216;27.904;2023-02-28T12:38:14;7.50;82.92
67799;SHT30;54596;43.216;27.904;2023-02-28T12:40:48;7.46;83.37
67799;SHT30;54596;43.216;27.904;2023-02-28T12:43:17;7.50;83.40
67799;SHT30;54596;43.216;27.904;2023-02-28T12:45:53;7.50;83.20
67799;SHT30;54596;43.216;27.904;2023-02-28T12:48:29;7.48;83.17
67799;SHT30;54596;43.216;27.904;2023-02-28T12:50:57;7.48;83.09
67799;SHT30;54596;43.216;27.904;2023-02-28T12:59:52;7.31;83.56
67799;SHT30;54596;43.216;27.904;2023-02-28T13:10:52;7.24;84.39
67799;SHT30;54596;43.216;27.904;2023-02-28T13:13:24;7.31;84.08
67799;SHT30;54596;43.216;27.904;2023-02-28T13:18:36;7.19;84.12
67799;SHT30;54596;43.216;27.904;2023-02-28T13:21:03;7.22;84.41
67799;SHT30;54596;43.216;27.904;2023-02-28T13:26:05;7.31;84.15
67799;SHT30;54596;43.216;27.904;2023-02-28T13:28:58;7.34;83.93
67799;SHT30;54596;43.216;27.904;2023-02-28T13:31:23;7.34;83.92
67799;SHT30;54596;43.216;27.904;2023-02-28T13:36:30;7.13;84.00
67799;SHT30;54596;43.216;27.904;2023-02-28T13:44:11;6.99;84.74
67799;SHT30;54596;43.216;27.904;2023-02-28T13:49:29;6.93;84.81
67799;SHT30;54596;43.216;27.904;2023-02-28T13:54:56;6.86;85.25
67799;SHT30;54596;43.216;27.904;2023-02-28T14:00:28;6.86;85.23
67799;SHT30;54596;43.216;27.904;2023-02-28T14:05:32;6.93;85.28
67799;SHT30;54596;43.216;27.904;2023-02-28T14:08:08;6.88;85.06
67799;SHT30;54596;43.216;27.904;2023-02-28T14:10:42;6.92;85.26
67799;SHT30;54596;43.216;27.904;2023-02-28T14:16:00;6.92;85.54
67799;SHT30;54596;43.216;27.904;2023-02-28T14:21:30;6.84;85.07
67799;SHT30;54596;43.216;27.904;2023-02-28T14:32:43;6.82;85.22
67799;SHT30;54596;43.216;27.904;2023-02-28T14:37:44;6.79;85.63
67799;SHT30;54596;43.216;27.904;2023-02-28T14:40:29;6.79;85.83
67799;SHT30;54596;43.216;27.904;2023-02-28T14:43:05;6.88;85.51
67799;SHT30;54596;43.216;27.904;2023-02-28T14:45:32;6.92;85.33
67799;SHT30;54596;43.216;27.904;2023-02-28T14:48:00;6.78;85.67
67799;SHT30;54596;43.216;27.904;2023-02-28T14:50:30;6.65;85.67
67799;SHT30;54596;43.216;27.904;2023-02-28T14:52:56;6.58;85.93
67799;SHT30;54596;43.216;27.904;2023-02-28T14:55:31;6.57;86.22
67799;SHT30;54596;43.216;27.904;2023-02-28T14:58:04;6.60;86.47
67799;SHT30;54596;43.216;27.904;2023-02-28T15:00:36;6.64;86.15
67799;SHT30;54596;43.216;27.904;2023-02-28T15:03:19;6.67;86.14
67799;SHT30;54596;43.216;27.904;2023-02-28T15:05:55;6.65;86.21
67799;SHT30;54596;43.216;27.904;2023-02-28T15:08:21;6.63;86.18
67799;SHT30;54596;43.216;27.904;2023-02-28T15:13:20;6.64;85.84
67799;SHT30;54596;43.216;27.904;2023-02-28T15:15:59;6.63;86.09
67799;SHT30;54596;43.216;27.904;2023-02-28T15:21:04;6.82;86.14
67799;SHT30;54596;43.216;27.904;2023-02-28T15:23:31;6.85;85.54
67799;SHT30;54596;43.216;27.904;2023-02-28T15:25:59;6.86;85.72
67799;SHT30;54596;43.216;27.904;2023-02-28T15:28:25;6.88;85.58
67799;SHT30;54596;43.216;27.904;2023-02-28T15:31:02;6.78;85.71
67799;SHT30;54596;43.216;27.904;2023-02-28T15:33:33;6.81;85.98
67799;SHT30;54596;43.216;27.904;2023-02-28T15:36:26;6.77;86.09
67799;SHT30;54596;43.216;27.904;2023-02-28T15:38:54;6.74;85.92
67799;SHT30;54596;43.216;27.904;2023-02-28T15:41:35;6.63;86.44
67799;SHT30;54596;43.216;27.904;2023-02-28T15:44:26;6.63;86.48
67799;SHT30;54596;43.216;27.904;2023-02-28T15:47:07;6.57;86.78
67799;SHT30;54596;43.216;27.904;2023-02-28T15:49:49;6.47;87.17
67799;SHT30;54596;43.216;27.904;2023-02-28T15:52:28;6.40;87.22
67799;SHT30;54596;43.216;27.904;2023-02-28T15:54:57;6.38;87.40
67799;SHT30;54596;43.216;27.904;2023-02-28T15:57:25;6.25;88.48
67799;SHT30;54596;43.216;27.904;2023-02-28T15:59:54;6.26;88.82
67799;SHT30;54596;43.216;27.904;2023-02-28T16:02:41;6.30;88.73
67799;SHT30;54596;43.216;27.904;2023-02-28T16:07:37;6.36;88.09
67799;SHT30;54596;43.216;27.904;2023-02-28T16:10:03;6.37;87.78
67799;SHT30;54596;43.216;27.904;2023-02-28T16:12:32;6.40;87.93
67799;SHT30;54596;43.216;27.904;2023-02-28T16:15:05;6.27;87.86
67799;SHT30;54596;43.216;27.904;2023-02-28T16:17:34;6.23;88.36
67799;SHT30;54596;43.216;27.904;2023-02-28T16:20:05;6.22;88.40
67799;SHT30;54596;43.216;27.904;2023-02-28T16:22:31;6.26;88.28
67799;SHT30;54596;43.216;27.904;2023-02-28T16:24:57;6.33;88.22
67799;SHT30;54596;43.216;27.904;2023-02-28T16:27:34;6.37;88.03
67799;SHT30;54596;43.216;27.904;2023-02-28T16:30:01;6.43;87.95
67799;SHT30;54596;43.216;27.904;2023-02-28T16:32:28;6.36;87.73
67799;SHT30;54596;43.216;27.904;2023-02-28T16:34:54;6.37;87.77
67799;SHT30;54596;43.216;27.904;2023-02-28T16:37:19;6.40;87.87
67799;SHT30;54596;43.216;27.904;2023-02-28T16:39:45;6.43;87.70
67799;SHT30;54596;43.216;27.904;2023-02-28T16:42:17;6.37;87.68
67799;SHT30;54596;43.216;27.904;2023-02-28T16:44:46;6.36;87.53
67799;SHT30;54596;43.216;27.904;2023-02-28T16:47:13;6.37;87.54
67799;SHT30;54596;43.216;27.904;2023-02-28T16:49:39;6.40;87.30
67799;SHT30;54596;43.216;27.904;2023-02-28T16:52:07;6.45;87.19
67799;SHT30;54596;43.216;27.904;2023-02-28T16:54:33;6.32;87.13
67799;SHT30;54596;43.216;27.904;2023-02-28T16:56:58;6.29;87.58
67799;SHT30;54596;43.216;27.904;2023-02-28T16:59:26;6.19;87.69
67799;SHT30;54596;43.216;27.904;2023-02-28T17:01:52;6.25;87.71
67799;SHT30;54596;43.216;27.904;2023-02-28T17:04:18;6.26;87.67
67799;SHT30;54596;43.216;27.904;2023-02-28T17:06:43;6.22;87.71
67799;SHT30;54596;43.216;27.904;2023-02-28T17:09:20;6.19;87.84
67799;SHT30;54596;43.216;27.904;2023-02-28T17:11:46;6.22;87.81
67799;SHT30;54596;43.216;27.904;2023-02-28T17:14:12;6.19;87.99
67799;SHT30;54596;43.216;27.904;2023-02-28T17:16:38;6.23;87.73
67799;SHT30;54596;43.216;27.904;2023-02-28T17:19:14;6.20;87.95
67799;SHT30;54596;43.216;27.904;2023-02-28T17:21:43;6.19;87.94
67799;SHT30;54596;43.216;27.904;2023-02-28T17:24:09;6.19;88.24
67799;SHT30;54596;43.216;27.904;2023-02-28T17:26:41;6.17;88.11
67799;SHT30;54596;43.216;27.904;2023-02-28T17:29:20;6.15;88.26
67799;SHT30;54596;43.216;27.904;2023-02-28T17:31:45;6.20;88.09
67799;SHT30;54596;43.216;27.904;2023-02-28T17:34:11;6.26;88.10
67799;SHT30;54596;43.216;27.904;2023-02-28T17:36:46;6.27;87.81
67799;SHT30;54596;43.216;27.904;2023-02-28T17:39:13;6.27;88.10
67799;SHT30;54596;43.216;27.904;2023-02-28T17:41:42;6.20;88.04
67799;SHT30;54596;43.216;27.904;2023-02-28T17:44:08;6.25;88.26
67799;SHT30;54596;43.216;27.904;2023-02-28T17:46:34;6.23;88.04
67799;SHT30;54596;43.216;27.904;2023-02-28T17:49:00;6.19;88.43
67799;SHT30;54596;43.216;27.904;2023-02-28T17:51:26;6.13;88.78
67799;SHT30;54596;43.216;27.904;2023-02-28T17:53:52;6.12;88.64
67799;SHT30;54596;43.216;27.904;2023-02-28T17:56:23;6.05;88.80
67799;SHT30;54596;43.216;27.904;2023-02-28T17:58:55;5.99;89.25
67799;SHT30;54596;43.216;27.904;2023-02-28T18:01:27;5.99;89.50
67799;SHT30;54596;43.216;27.904;2023-02-28T18:03:55;5.97;89.45
67799;SHT30;54596;43.216;27.904;2023-02-28T18:08:48;5.97;89.47
67799;SHT30;54596;43.216;27.904;2023-02-28T18:11:14;5.98;89.60
67799;SHT30;54596;43.216;27.904;2023-02-28T18:13:53;6.03;89.48
67799;SHT30;54596;43.216;27.904;2023-02-28T18:16:20;6.05;89.50
67799;SHT30;54596;43.216;27.904;2023-02-28T18:18:47;6.13;89.39
67799;SHT30;54596;43.216;27.904;2023-02-28T18:21:14;6.17;89.66
67799;SHT30;54596;43.216;27.904;2023-02-28T18:23:40;6.23;89.33
67799;SHT30;54596;43.216;27.904;2023-02-28T18:26:18;6.12;89.78
67799;SHT30;54596;43.216;27.904;2023-02-28T18:28:45;6.03;89.54